createdAt,value
2023-05-10T00:00:58.391Z,25.00
2023-05-10T00:01:58.436Z,25.00
2023-05-10T00:02:58.399Z,25.00
2023-05-10T00:03:58.432Z,25.00
2023-05-10T00:04:58.353Z,26.63
2023-05-10T00:05:58.352Z,22.80
2023-05-10T00:06:58.350Z,19.05
2023-05-10T00:07:58.383Z,4.31
2023-05-10T00:08:58.449Z,25.35
2023-05-10T00:09:58.494Z,31.58
2023-05-10T00:10:58.553Z,0.00
2023-05-10T00:11:58.607Z,22.33
2023-05-10T00:12:58.689Z,21.38
2023-05-10T00:13:58.690Z,26.70
2023-05-10T00:14:58.721Z,48.89
2023-05-10T00:15:58.757Z,34.11
2023-05-10T00:16:58.854Z,25.00
2023-05-10T00:17:58.895Z,28.06
2023-05-10T00:18:58.875Z,40.60
2023-05-10T00:19:58.912Z,21.16
2023-05-10T00:20:58.957Z,53.01
2023-05-10T00:21:58.965Z,95.66
2023-05-10T00:22:58.983Z,136.20
2023-05-10T00:23:59.042Z,156.79
2023-05-10T00:24:59.075Z,189.48
2023-05-10T00:25:59.123Z,193.14
2023-05-10T00:26:59.161Z,207.67
2023-05-10T00:27:59.186Z,198.57
2023-05-10T00:28:59.204Z,190.58
2023-05-10T00:29:59.228Z,175.92
2023-05-10T00:30:59.298Z,180.17
2023-05-10T00:31:59.351Z,124.46
2023-05-10T00:32:59.390Z,117.28
2023-05-10T00:33:59.424Z,162.46
2023-05-10T00:34:59.438Z,181.35
2023-05-10T00:35:59.475Z,245.95
2023-05-10T00:36:59.544Z,278.16
2023-05-10T00:37:59.576Z,262.29
2023-05-10T00:38:59.658Z,209.16
2023-05-10T00:39:59.696Z,235.28
2023-05-10T00:40:59.676Z,247.04
2023-05-10T00:41:59.674Z,236.96
2023-05-10T00:42:59.692Z,250.00
2023-05-10T00:43:59.698Z,231.96
2023-05-10T00:44:59.751Z,206.78
2023-05-10T00:45:59.770Z,195.33
2023-05-10T00:46:59.807Z,204.65
2023-05-10T00:48:00.308Z,206.77
2023-05-10T00:48:59.851Z,185.81
2023-05-10T00:49:59.865Z,187.87
2023-05-10T00:50:59.887Z,196.41
2023-05-10T00:51:59.934Z,190.65
2023-05-10T00:53:00.017Z,191.44
2023-05-10T00:54:00.019Z,231.81
2023-05-10T00:55:00.050Z,247.92
2023-05-10T00:56:00.078Z,248.76
2023-05-10T00:57:00.082Z,254.32
2023-05-10T00:58:00.163Z,236.44
2023-05-10T00:59:00.194Z,247.75
2023-05-10T01:00:00.254Z,243.01
2023-05-10T01:01:00.291Z,248.73
2023-05-10T01:02:00.288Z,251.05
2023-05-10T01:03:00.425Z,233.11
2023-05-10T01:04:00.368Z,225.13
2023-05-10T01:05:00.431Z,215.32
2023-05-10T01:06:00.436Z,228.76
2023-05-10T01:07:00.473Z,255.31
2023-05-10T01:08:00.526Z,266.80
2023-05-10T01:09:00.563Z,265.76
2023-05-10T01:10:00.585Z,251.97
2023-05-10T01:11:00.620Z,262.72
2023-05-10T01:12:00.681Z,261.18
2023-05-10T01:13:00.698Z,248.78
2023-05-10T01:14:00.696Z,257.71
2023-05-10T01:15:00.742Z,277.78
2023-05-10T01:16:00.840Z,272.30
2023-05-10T01:17:00.845Z,268.49
2023-05-10T01:18:00.874Z,262.34
2023-05-10T01:19:00.916Z,250.29
2023-05-10T01:20:00.916Z,246.86
2023-05-10T01:21:00.909Z,249.59
2023-05-10T01:22:00.911Z,245.93
2023-05-10T01:23:00.910Z,254.04
2023-05-10T01:24:00.916Z,249.23
2023-05-10T01:25:00.909Z,239.83
2023-05-10T01:26:00.916Z,247.15
2023-05-10T01:27:00.898Z,253.03
2023-05-10T01:28:00.887Z,268.27
2023-05-10T01:29:00.886Z,247.32
2023-05-10T01:30:21.776Z,245.56
2023-05-10T01:31:00.884Z,243.80
2023-05-10T01:32:00.815Z,247.00
2023-05-10T01:33:00.810Z,251.80
2023-05-10T01:34:00.754Z,254.63
2023-05-10T01:35:00.735Z,263.87
2023-05-10T01:36:00.687Z,262.38
2023-05-10T01:37:00.659Z,259.61
2023-05-10T01:38:00.629Z,251.52
2023-05-10T01:39:00.616Z,246.02
2023-05-10T01:40:00.630Z,242.92
2023-05-10T01:41:00.608Z,224.39
2023-05-10T01:42:00.611Z,227.58
2023-05-10T01:43:00.616Z,235.50
2023-05-10T01:44:00.629Z,241.10
2023-05-10T01:45:00.648Z,250.75
2023-05-10T01:46:00.621Z,253.80
2023-05-10T01:47:00.755Z,251.08
2023-05-10T01:48:00.647Z,247.03
2023-05-10T01:49:00.557Z,246.97
2023-05-10T01:50:00.581Z,247.97
2023-05-10T01:51:00.554Z,236.69
2023-05-10T01:52:00.524Z,232.09
2023-05-10T01:53:00.567Z,229.91
2023-05-10T01:54:00.566Z,229.93
2023-05-10T01:55:00.565Z,234.10
2023-05-10T01:56:00.588Z,238.32
2023-05-10T01:57:00.567Z,241.52
2023-05-10T01:58:00.593Z,247.76
2023-05-10T01:59:00.585Z,245.43
2023-05-10T02:00:00.611Z,248.58
2023-05-10T02:01:00.677Z,252.65
2023-05-10T02:02:00.561Z,253.15
2023-05-10T02:03:00.607Z,251.51
2023-05-10T02:04:00.656Z,249.22
2023-05-10T02:05:00.525Z,244.72
2023-05-10T02:06:00.548Z,238.47
2023-05-10T02:07:00.636Z,234.86
2023-05-10T02:08:00.638Z,232.03
2023-05-10T02:09:00.682Z,224.00
2023-05-10T02:10:00.716Z,218.72
2023-05-10T02:11:00.762Z,215.31
2023-05-10T02:12:00.818Z,216.11
2023-05-10T02:13:00.941Z,219.11
2023-05-10T02:14:00.953Z,220.06
2023-05-10T02:15:01.017Z,220.59
2023-05-10T02:16:01.028Z,221.29
2023-05-10T02:17:01.096Z,224.87
2023-05-10T02:18:01.275Z,227.49
2023-05-10T02:19:01.246Z,230.01
2023-05-10T02:20:01.281Z,224.21
2023-05-10T02:21:01.341Z,222.86
2023-05-10T02:22:01.416Z,225.37
2023-05-10T02:23:01.463Z,228.05
2023-05-10T02:24:01.518Z,228.87
2023-05-10T02:25:01.544Z,229.37
2023-05-10T02:26:01.582Z,230.87
2023-05-10T02:27:01.581Z,231.01
2023-05-10T02:28:01.604Z,230.26
2023-05-10T02:29:01.724Z,232.61
2023-05-10T02:30:01.785Z,231.87
2023-05-10T02:31:01.842Z,233.67
2023-05-10T02:32:01.995Z,234.09
2023-05-10T02:33:02.023Z,232.23
2023-05-10T02:34:02.051Z,231.39
2023-05-10T02:35:02.099Z,229.30
2023-05-10T02:36:02.178Z,228.98
2023-05-10T02:37:02.236Z,229.26
2023-05-10T02:38:02.291Z,230.04
2023-05-10T02:39:02.393Z,229.38
2023-05-10T02:40:02.422Z,230.40
2023-05-10T02:41:02.436Z,231.44
2023-05-10T02:42:02.493Z,231.30
2023-05-10T02:43:02.584Z,228.98
2023-05-10T02:44:02.592Z,226.85
2023-05-10T02:45:02.663Z,228.89
2023-05-10T02:46:02.771Z,229.61
2023-05-10T02:47:02.781Z,229.88
2023-05-10T02:48:02.852Z,229.96
2023-05-10T02:49:02.880Z,230.23
2023-05-10T02:50:02.912Z,229.45
2023-05-10T02:51:02.984Z,228.92
2023-05-10T02:52:03.068Z,228.09
2023-05-10T02:53:03.172Z,226.63
2023-05-10T02:54:03.228Z,227.96
2023-05-10T02:55:03.337Z,230.76
2023-05-10T02:56:03.348Z,236.00
2023-05-10T02:57:03.381Z,240.18
2023-05-10T02:58:03.435Z,241.77
2023-05-10T02:59:03.431Z,240.60
2023-05-10T03:00:03.476Z,240.38
2023-05-10T03:01:03.557Z,239.28
2023-05-10T03:02:03.580Z,234.51
2023-05-10T03:03:03.649Z,227.04
2023-05-10T03:04:03.602Z,223.69
2023-05-10T03:05:03.741Z,220.41
2023-05-10T03:06:03.640Z,219.68
2023-05-10T03:07:03.679Z,217.45
2023-05-10T03:08:03.695Z,216.85
2023-05-10T03:09:03.714Z,217.55
2023-05-10T03:10:03.754Z,219.80
2023-05-10T03:11:03.790Z,222.90
2023-05-10T03:12:03.830Z,226.14
2023-05-10T03:13:03.895Z,226.42
2023-05-10T03:14:03.942Z,228.57
2023-05-10T03:15:04.030Z,230.14
2023-05-10T03:16:04.065Z,230.26
2023-05-10T03:17:04.076Z,232.84
2023-05-10T03:18:04.167Z,233.62
2023-05-10T03:19:04.178Z,234.03
2023-05-10T03:20:04.194Z,234.31
2023-05-10T03:21:04.237Z,233.58
2023-05-10T03:22:04.276Z,237.10
2023-05-10T03:23:04.338Z,236.64
2023-05-10T03:24:04.415Z,235.71
2023-05-10T03:25:04.428Z,235.35
2023-05-10T03:26:04.471Z,232.74
2023-05-10T03:27:04.556Z,234.26
2023-05-10T03:28:04.535Z,232.91
2023-05-10T03:29:04.597Z,229.86
2023-05-10T03:30:04.560Z,231.43
2023-05-10T03:31:04.623Z,230.11
2023-05-10T03:32:04.574Z,224.74
2023-05-10T03:33:04.654Z,223.60
2023-05-10T03:34:04.735Z,222.56
2023-05-10T03:35:04.698Z,223.36
2023-05-10T03:36:04.747Z,222.80
2023-05-10T03:37:04.800Z,221.92
2023-05-10T03:38:04.834Z,219.95
2023-05-10T03:39:04.942Z,219.08
2023-05-10T03:40:05.006Z,217.85
2023-05-10T03:41:05.006Z,218.44
2023-05-10T03:42:05.040Z,223.27
2023-05-10T03:43:05.076Z,227.96
2023-05-10T03:44:05.121Z,230.31
2023-05-10T03:45:05.129Z,229.40
2023-05-10T03:46:05.185Z,229.74
2023-05-10T03:47:05.258Z,234.36
2023-05-10T03:48:05.310Z,237.14
2023-05-10T03:49:05.340Z,229.01
2023-05-10T03:50:05.290Z,222.91
2023-05-10T03:51:05.304Z,223.98
2023-05-10T03:52:05.318Z,226.72
2023-05-10T03:53:05.325Z,230.07
2023-05-10T03:54:05.337Z,230.59
2023-05-10T03:55:05.336Z,224.32
2023-05-10T03:56:05.352Z,228.27
2023-05-10T03:57:05.360Z,228.48
2023-05-10T03:58:05.364Z,228.17
2023-05-10T03:59:05.440Z,228.87
2023-05-10T04:00:05.462Z,229.94
2023-05-10T04:01:05.525Z,230.57
2023-05-10T04:02:05.606Z,232.62
2023-05-10T04:03:05.654Z,221.28
2023-05-10T04:04:05.702Z,218.89
2023-05-10T04:05:05.745Z,219.21
2023-05-10T04:06:05.817Z,222.22
2023-05-10T04:07:05.804Z,224.19
2023-05-10T04:08:05.865Z,227.53
2023-05-10T04:09:05.945Z,233.69
2023-05-10T04:10:05.954Z,233.19
2023-05-10T04:11:05.997Z,231.65
2023-05-10T04:12:06.499Z,232.79
2023-05-10T04:13:06.111Z,234.03
2023-05-10T04:14:06.128Z,235.31
2023-05-10T04:15:06.160Z,230.90
2023-05-10T04:16:06.192Z,229.13
2023-05-10T04:17:06.330Z,229.57
2023-05-10T04:18:08.718Z,229.28
2023-05-10T04:19:06.287Z,230.24
2023-05-10T04:20:06.186Z,231.00
2023-05-10T04:21:06.166Z,230.52
2023-05-10T04:22:06.144Z,228.61
2023-05-10T04:23:06.140Z,231.18
2023-05-10T04:24:06.118Z,232.61
2023-05-10T04:25:06.076Z,231.06
2023-05-10T04:26:06.047Z,228.36
2023-05-10T04:27:06.019Z,228.61
2023-05-10T04:28:05.999Z,233.71
2023-05-10T04:29:06.017Z,234.05
2023-05-10T04:30:05.956Z,230.60
2023-05-10T04:31:06.054Z,226.68
2023-05-10T04:32:05.903Z,227.20
2023-05-10T04:33:05.943Z,237.16
2023-05-10T04:34:05.892Z,240.79
2023-05-10T04:35:05.836Z,245.13
2023-05-10T04:36:05.833Z,244.63
2023-05-10T04:37:05.789Z,243.81
2023-05-10T04:38:05.755Z,234.68
2023-05-10T04:39:05.802Z,231.51
2023-05-10T04:40:05.721Z,229.67
2023-05-10T04:41:05.714Z,220.53
2023-05-10T04:42:05.696Z,220.63
2023-05-10T04:43:05.687Z,218.07
2023-05-10T04:44:05.699Z,218.18
2023-05-10T04:45:05.658Z,221.86
2023-05-10T04:46:05.734Z,219.29
2023-05-10T04:47:05.691Z,217.53
2023-05-10T04:48:05.715Z,218.49
2023-05-10T04:49:05.732Z,223.88
2023-05-10T04:50:05.804Z,235.95
2023-05-10T04:51:05.855Z,248.17
2023-05-10T04:52:05.852Z,249.62
2023-05-10T04:53:05.898Z,246.09
2023-05-10T04:54:06.936Z,244.51
2023-05-10T04:55:05.971Z,241.26
2023-05-10T04:56:06.001Z,242.64
2023-05-10T04:57:06.039Z,246.72
2023-05-10T04:58:06.081Z,244.95
2023-05-10T04:59:06.127Z,240.80
2023-05-10T05:00:06.181Z,236.07
2023-05-10T05:01:06.208Z,232.85
2023-05-10T05:02:06.320Z,227.54
2023-05-10T05:03:06.448Z,223.47
2023-05-10T05:04:06.367Z,219.95
2023-05-10T05:05:06.432Z,220.60
2023-05-10T05:06:06.436Z,222.85
2023-05-10T05:07:06.464Z,225.30
2023-05-10T05:08:06.504Z,225.63
2023-05-10T05:09:06.554Z,230.53
2023-05-10T05:10:06.554Z,239.87
2023-05-10T05:11:06.571Z,249.84
2023-05-10T05:12:06.634Z,252.53
2023-05-10T05:13:06.768Z,250.00
2023-05-10T05:14:06.731Z,250.00
2023-05-10T05:15:09.055Z,250.00
2023-05-10T05:16:06.769Z,250.04
2023-05-10T05:17:06.660Z,245.73
2023-05-10T05:18:06.691Z,241.74
2023-05-10T05:19:06.832Z,239.67
2023-05-10T05:20:06.623Z,237.84
2023-05-10T05:21:06.778Z,231.43
2023-05-10T05:22:06.552Z,223.41
2023-05-10T05:23:06.545Z,220.20
2023-05-10T05:24:06.528Z,220.88
2023-05-10T05:25:06.465Z,224.21
2023-05-10T05:26:06.782Z,223.18
2023-05-10T05:27:06.410Z,222.53
2023-05-10T05:28:06.383Z,224.69
2023-05-10T05:29:06.357Z,227.48
2023-05-10T05:30:06.367Z,227.33
2023-05-10T05:31:06.350Z,224.06
2023-05-10T05:32:06.380Z,222.95
2023-05-10T05:33:06.352Z,222.59
2023-05-10T05:34:06.242Z,221.18
2023-05-10T05:35:06.311Z,220.05
2023-05-10T05:36:06.184Z,221.31
2023-05-10T05:37:06.168Z,221.93
2023-05-10T05:38:06.178Z,217.86
2023-05-10T05:39:06.111Z,224.67
2023-05-10T05:40:06.299Z,236.41
2023-05-10T05:41:06.057Z,250.00
2023-05-10T05:42:06.054Z,249.11
2023-05-10T05:43:06.054Z,247.04
2023-05-10T05:44:06.062Z,234.57
2023-05-10T05:45:06.283Z,221.95
2023-05-10T05:46:06.186Z,217.91
2023-05-10T05:47:06.163Z,219.20
2023-05-10T05:48:06.266Z,223.00
2023-05-10T05:49:06.217Z,218.29
2023-05-10T05:50:06.297Z,218.53
2023-05-10T05:51:07.394Z,224.87
2023-05-10T05:52:07.289Z,230.46
2023-05-10T05:53:06.253Z,229.51
2023-05-10T05:54:06.557Z,240.73
2023-05-10T05:55:06.334Z,243.01
2023-05-10T05:56:06.269Z,244.72
2023-05-10T05:57:06.284Z,246.19
2023-05-10T05:58:06.789Z,247.75
2023-05-10T05:59:06.327Z,249.89
2023-05-10T06:00:06.789Z,250.00
2023-05-10T06:01:06.375Z,249.19
2023-05-10T06:02:09.634Z,250.00
2023-05-10T06:03:06.470Z,247.02
2023-05-10T06:04:09.610Z,245.02
2023-05-10T06:05:06.797Z,248.91
2023-05-10T06:06:06.328Z,250.04
2023-05-10T06:07:06.345Z,251.01
2023-05-10T06:08:06.268Z,251.91
2023-05-10T06:09:13.662Z,253.91
2023-05-10T06:10:06.188Z,250.31
2023-05-10T06:11:06.166Z,252.03
2023-05-10T06:12:06.325Z,254.68
2023-05-10T06:13:06.146Z,257.59
2023-05-10T06:14:06.069Z,262.81
2023-05-10T06:15:06.307Z,255.31
2023-05-10T06:16:06.013Z,249.09
2023-05-10T06:17:06.053Z,247.13
2023-05-10T06:18:06.130Z,244.87
2023-05-10T06:19:05.933Z,242.87
2023-05-10T06:20:06.306Z,243.52
2023-05-10T06:21:05.848Z,244.42
2023-05-10T06:22:05.807Z,244.69
2023-05-10T06:23:05.808Z,245.56
2023-05-10T06:24:05.771Z,248.42
2023-05-10T06:25:05.795Z,249.64
2023-05-10T06:26:05.687Z,249.32
2023-05-10T06:27:05.662Z,250.76
2023-05-10T06:28:05.629Z,249.80
2023-05-10T06:29:05.590Z,241.17
2023-05-10T06:30:12.791Z,240.47
2023-05-10T06:31:08.743Z,238.91
2023-05-10T06:32:05.488Z,236.17
2023-05-10T06:33:05.507Z,228.89
2023-05-10T06:34:05.423Z,224.73
2023-05-10T06:35:05.808Z,224.87
2023-05-10T06:36:05.358Z,226.98
2023-05-10T06:37:05.311Z,225.57
2023-05-10T06:38:05.272Z,226.92
2023-05-10T06:39:05.559Z,228.65
2023-05-10T06:40:06.204Z,229.51
2023-05-10T06:41:05.171Z,228.89
2023-05-10T06:42:05.157Z,225.20
2023-05-10T06:43:05.090Z,224.29
2023-05-10T06:44:05.297Z,227.13
2023-05-10T06:45:05.305Z,229.29
2023-05-10T06:46:04.993Z,229.83
2023-05-10T06:47:04.984Z,228.50
2023-05-10T06:48:04.988Z,227.23
2023-05-10T06:49:05.367Z,223.80
2023-05-10T06:50:05.368Z,221.90
2023-05-10T06:51:04.800Z,212.58
2023-05-10T06:52:04.801Z,213.08
2023-05-10T06:53:04.742Z,216.53
2023-05-10T06:54:04.713Z,220.49
2023-05-10T06:55:04.830Z,219.74
2023-05-10T06:56:07.851Z,222.46
2023-05-10T06:57:08.811Z,222.47
2023-05-10T06:58:04.574Z,221.59
2023-05-10T06:59:07.909Z,219.03
2023-05-10T07:00:04.826Z,214.76
2023-05-10T07:01:04.523Z,216.04
2023-05-10T07:02:04.530Z,215.24
2023-05-10T07:03:04.505Z,216.79
2023-05-10T07:04:04.817Z,221.91
2023-05-10T07:05:04.812Z,223.66
2023-05-10T07:06:04.343Z,221.71
2023-05-10T07:07:04.316Z,225.76
2023-05-10T07:08:04.255Z,229.51
2023-05-10T07:09:04.337Z,228.72
2023-05-10T07:10:04.328Z,229.32
2023-05-10T07:11:04.290Z,228.01
2023-05-10T07:12:04.190Z,227.57
2023-05-10T07:13:04.147Z,222.22
2023-05-10T07:14:04.064Z,215.66
2023-05-10T07:15:04.032Z,215.08
2023-05-10T07:16:04.019Z,211.68
2023-05-10T07:17:04.366Z,202.23
2023-05-10T07:18:04.026Z,199.96
2023-05-10T07:19:03.884Z,203.06
2023-05-10T07:20:03.855Z,205.05
2023-05-10T07:21:03.813Z,203.36
2023-05-10T07:22:03.760Z,186.79
2023-05-10T07:23:03.743Z,169.14
2023-05-10T07:24:03.696Z,166.97
2023-05-10T07:25:03.690Z,158.48
2023-05-10T07:26:03.645Z,157.31
2023-05-10T07:27:03.842Z,169.58
2023-05-10T07:28:03.570Z,167.11
2023-05-10T07:29:03.814Z,146.87
2023-05-10T07:30:03.598Z,143.50
2023-05-10T07:31:03.549Z,134.36
2023-05-10T07:32:03.833Z,120.66
2023-05-10T07:33:03.446Z,110.59
2023-05-10T07:34:03.377Z,101.24
2023-05-10T07:35:04.378Z,89.12
2023-05-10T07:36:03.290Z,82.78
2023-05-10T07:37:03.317Z,80.74
2023-05-10T07:38:03.253Z,73.67
2023-05-10T07:39:03.173Z,84.10
2023-05-10T07:40:03.312Z,93.45
2023-05-10T07:41:03.210Z,99.39
2023-05-10T07:42:03.089Z,104.17
2023-05-10T07:43:03.168Z,112.28
2023-05-10T07:44:06.439Z,121.72
2023-05-10T07:45:03.360Z,121.76
2023-05-10T07:46:07.395Z,122.00
2023-05-10T07:47:03.098Z,121.87
2023-05-10T07:48:03.059Z,123.33
2023-05-10T07:49:03.040Z,125.82
2023-05-10T07:50:03.369Z,135.14
2023-05-10T07:51:03.101Z,150.67
2023-05-10T07:52:03.280Z,142.18
2023-05-10T07:53:03.248Z,133.17
2023-05-10T07:54:06.251Z,130.49
2023-05-10T07:55:03.336Z,130.55
2023-05-10T07:56:02.974Z,131.39
2023-05-10T07:57:03.001Z,132.68
2023-05-10T07:58:02.936Z,136.71
2023-05-10T07:59:02.929Z,142.83
2023-05-10T08:00:03.324Z,144.19
2023-05-10T08:01:02.791Z,143.20
2023-05-10T08:02:02.781Z,152.26
2023-05-10T08:03:02.862Z,156.26
2023-05-10T08:04:02.934Z,159.70
2023-05-10T08:05:02.826Z,168.15
2023-05-10T08:06:02.610Z,176.02
2023-05-10T08:07:02.831Z,185.61
2023-05-10T08:08:02.514Z,186.88
2023-05-10T08:09:02.486Z,185.04
2023-05-10T08:10:02.830Z,178.35
2023-05-10T08:11:02.405Z,172.46
2023-05-10T08:12:02.366Z,160.80
2023-05-10T08:13:02.328Z,149.94
2023-05-10T08:14:02.321Z,140.98
2023-05-10T08:15:02.284Z,147.94
2023-05-10T08:16:02.241Z,140.63
2023-05-10T08:17:02.212Z,145.56
2023-05-10T08:18:02.154Z,140.30
2023-05-10T08:19:02.131Z,137.55
2023-05-10T08:20:02.407Z,137.03
2023-05-10T08:21:01.990Z,131.79
2023-05-10T08:22:01.968Z,132.97
2023-05-10T08:23:01.904Z,140.02
2023-05-10T08:24:01.855Z,144.87
2023-05-10T08:25:02.342Z,150.33
2023-05-10T08:26:03.437Z,153.96
2023-05-10T08:27:01.974Z,159.90
2023-05-10T08:28:02.003Z,156.27
2023-05-10T08:29:01.973Z,164.20
2023-05-10T08:30:02.332Z,171.28
2023-05-10T08:31:02.057Z,159.41
2023-05-10T08:32:01.951Z,157.93
2023-05-10T08:33:01.985Z,155.20
2023-05-10T08:34:01.893Z,145.12
2023-05-10T08:35:02.340Z,141.10
2023-05-10T08:36:01.856Z,139.66
2023-05-10T08:37:01.812Z,133.48
2023-05-10T08:38:01.807Z,131.18
2023-05-10T08:39:01.792Z,127.89
2023-05-10T08:40:02.878Z,120.30
2023-05-10T08:41:01.650Z,125.26
2023-05-10T08:42:01.833Z,135.62
2023-05-10T08:43:01.588Z,122.38
2023-05-10T08:44:01.563Z,99.81
2023-05-10T08:45:05.425Z,88.08
2023-05-10T08:46:01.505Z,88.22
2023-05-10T08:47:01.621Z,89.57
2023-05-10T08:48:01.484Z,92.61
2023-05-10T08:49:01.374Z,96.58
2023-05-10T08:50:01.875Z,102.70
2023-05-10T08:51:01.350Z,107.93
2023-05-10T08:52:01.301Z,109.51
2023-05-10T08:53:01.289Z,117.96
2023-05-10T08:54:01.258Z,115.80
2023-05-10T08:55:01.339Z,115.66
2023-05-10T08:56:01.254Z,112.72
2023-05-10T08:57:01.227Z,108.69
2023-05-10T08:58:01.240Z,112.39
2023-05-10T08:59:01.347Z,123.26
2023-05-10T09:00:01.857Z,126.04
2023-05-10T09:01:01.419Z,133.16
2023-05-10T09:02:01.348Z,137.78
2023-05-10T09:03:01.461Z,132.94
2023-05-10T09:04:01.462Z,124.26
2023-05-10T09:05:01.610Z,118.79
2023-05-10T09:06:01.446Z,116.80
2023-05-10T09:07:04.677Z,118.88
2023-05-10T09:08:01.482Z,114.32
2023-05-10T09:09:01.441Z,108.84
2023-05-10T09:10:01.448Z,113.65
2023-05-10T09:11:01.413Z,117.35
2023-05-10T09:12:01.407Z,111.40
2023-05-10T09:13:01.404Z,111.63
2023-05-10T09:14:01.389Z,121.72
2023-05-10T09:15:01.885Z,141.31
2023-05-10T09:16:09.855Z,149.79
2023-05-10T09:17:01.458Z,150.09
2023-05-10T09:18:01.400Z,151.56
2023-05-10T09:19:01.425Z,154.15
2023-05-10T09:20:02.688Z,155.85
2023-05-10T09:21:01.887Z,153.51
2023-05-10T09:22:01.654Z,149.65
2023-05-10T09:23:01.648Z,154.53
2023-05-10T09:24:01.716Z,166.30
2023-05-10T09:25:01.763Z,174.45
2023-05-10T09:26:01.848Z,174.98
2023-05-10T09:27:01.828Z,171.35
2023-05-10T09:28:01.900Z,168.70
2023-05-10T09:29:01.955Z,170.91
2023-05-10T09:30:02.353Z,173.32
2023-05-10T09:31:02.070Z,170.74
2023-05-10T09:32:02.073Z,160.13
2023-05-10T09:33:02.129Z,161.36
2023-05-10T09:34:02.135Z,152.52
2023-05-10T09:35:02.391Z,161.50
2023-05-10T09:36:02.356Z,165.21
2023-05-10T09:37:02.281Z,163.56
2023-05-10T09:38:02.325Z,154.98
2023-05-10T09:39:02.858Z,148.08
2023-05-10T09:40:02.442Z,143.60
2023-05-10T09:41:02.428Z,143.17
2023-05-10T09:42:02.451Z,142.83
2023-05-10T09:43:02.485Z,136.35
2023-05-10T09:44:02.864Z,119.31
2023-05-10T09:45:02.549Z,113.82
2023-05-10T09:46:02.645Z,113.93
2023-05-10T09:47:02.629Z,123.74
2023-05-10T09:48:02.718Z,126.11
2023-05-10T09:49:02.726Z,129.07
2023-05-10T09:50:02.860Z,129.36
2023-05-10T09:51:02.774Z,118.01
2023-05-10T09:52:02.782Z,99.67
2023-05-10T09:53:02.825Z,87.80
2023-05-10T09:54:03.376Z,91.36
2023-05-10T09:55:02.957Z,96.40
2023-05-10T09:56:02.976Z,104.11
2023-05-10T09:57:03.357Z,98.86
2023-05-10T09:58:04.009Z,83.01
2023-05-10T09:59:06.204Z,69.21
2023-05-10T10:00:03.006Z,69.36
2023-05-10T10:01:03.408Z,71.81
2023-05-10T10:02:03.080Z,74.74
2023-05-10T10:03:03.060Z,73.89
2023-05-10T10:04:03.004Z,69.08
2023-05-10T10:05:03.031Z,73.17
2023-05-10T10:06:03.367Z,76.99
2023-05-10T10:07:03.053Z,84.19
2023-05-10T10:08:03.393Z,95.96
2023-05-10T10:09:03.047Z,90.14
2023-05-10T10:10:03.361Z,87.72
2023-05-10T10:11:03.360Z,92.43
2023-05-10T10:12:03.084Z,72.17
2023-05-10T10:13:03.118Z,71.81
2023-05-10T10:14:03.132Z,81.39
2023-05-10T10:15:03.162Z,88.44
2023-05-10T10:16:03.408Z,87.82
2023-05-10T10:18:02.328Z,79.67
2023-05-10T10:19:03.330Z,82.50
2023-05-10T10:20:03.311Z,91.22
2023-05-10T10:21:03.378Z,105.93
2023-05-10T10:22:03.316Z,130.46
2023-05-10T10:23:03.358Z,131.77
2023-05-10T10:24:03.350Z,124.67
2023-05-10T10:25:03.357Z,115.96
2023-05-10T10:26:03.868Z,110.20
2023-05-10T10:27:03.385Z,112.77
2023-05-10T10:28:03.413Z,116.75
2023-05-10T10:29:03.413Z,124.17
2023-05-10T10:30:03.391Z,112.06
2023-05-10T10:31:03.899Z,108.88
2023-05-10T10:32:03.397Z,122.36
2023-05-10T10:33:10.224Z,129.78
2023-05-10T10:34:03.414Z,125.63
2023-05-10T10:35:03.414Z,117.94
2023-05-10T10:36:03.865Z,111.06
2023-05-10T10:37:03.411Z,112.07
2023-05-10T10:38:03.410Z,114.62
2023-05-10T10:39:03.448Z,128.74
2023-05-10T10:40:03.423Z,132.06
2023-05-10T10:41:03.884Z,128.21
2023-05-10T10:42:03.430Z,122.02
2023-05-10T10:43:03.457Z,121.67
2023-05-10T10:44:03.477Z,106.67
2023-05-10T10:45:03.490Z,110.24
2023-05-10T10:46:03.538Z,116.26
2023-05-10T10:47:03.613Z,121.86
2023-05-10T10:48:03.613Z,130.13
2023-05-10T10:49:03.591Z,121.62
2023-05-10T10:50:03.657Z,122.03
2023-05-10T10:51:05.321Z,136.72
2023-05-10T10:52:03.653Z,139.92
2023-05-10T10:53:03.665Z,133.37
2023-05-10T10:54:03.734Z,137.25
2023-05-10T10:55:03.786Z,136.39
2023-05-10T10:56:03.691Z,131.07
2023-05-10T10:57:03.700Z,124.00
2023-05-10T10:58:03.882Z,116.82
2023-05-10T10:59:03.736Z,103.73
2023-05-10T11:00:03.805Z,98.05
2023-05-10T11:01:03.792Z,98.63
2023-05-10T11:02:04.673Z,95.46
2023-05-10T11:03:04.037Z,103.54
2023-05-10T11:04:03.950Z,108.90
2023-05-10T11:05:04.377Z,119.25
2023-05-10T11:06:03.898Z,124.98
2023-05-10T11:07:03.910Z,132.06
2023-05-10T11:08:03.913Z,127.08
2023-05-10T11:09:03.935Z,126.40
2023-05-10T11:10:04.377Z,128.23
2023-05-10T11:11:03.976Z,122.25
2023-05-10T11:12:03.960Z,124.48
2023-05-10T11:13:03.955Z,131.13
2023-05-10T11:14:03.957Z,127.59
2023-05-10T11:15:03.957Z,125.73
2023-05-10T11:16:04.398Z,109.44
2023-05-10T11:17:04.024Z,114.82
2023-05-10T11:18:04.029Z,147.36
2023-05-10T11:19:07.310Z,104.15
2023-05-10T11:20:03.976Z,85.88
2023-05-10T11:21:04.006Z,84.77
2023-05-10T11:22:04.772Z,88.83
2023-05-10T11:23:04.047Z,68.50
2023-05-10T11:24:04.072Z,66.57
2023-05-10T11:25:04.113Z,79.92
2023-05-10T11:26:05.112Z,74.65
2023-05-10T11:27:04.153Z,75.63
2023-05-10T11:28:04.365Z,65.87
2023-05-10T11:29:04.153Z,45.28
2023-05-10T11:30:05.040Z,59.73
2023-05-10T11:31:04.245Z,67.06
2023-05-10T11:32:04.159Z,56.63
2023-05-10T11:33:04.203Z,47.49
2023-05-10T11:34:04.192Z,42.70
2023-05-10T11:35:04.197Z,42.74
2023-05-10T11:36:04.215Z,34.34
2023-05-10T11:37:04.244Z,47.29
2023-05-10T11:38:04.302Z,52.20
2023-05-10T11:39:04.331Z,49.18
2023-05-10T11:40:04.405Z,43.37
2023-05-10T11:41:04.549Z,31.90
2023-05-10T11:42:04.534Z,47.25
2023-05-10T11:43:04.596Z,46.94
2023-05-10T11:44:04.630Z,56.37
2023-05-10T11:45:04.700Z,49.11
2023-05-10T11:46:04.831Z,50.69
2023-05-10T11:47:04.788Z,36.54
2023-05-10T11:48:04.882Z,47.91
2023-05-10T11:49:04.953Z,41.00
2023-05-10T11:50:04.922Z,25.61
2023-05-10T11:51:04.997Z,21.92
2023-05-10T11:52:05.002Z,3.72
2023-05-10T11:53:05.049Z,21.13
2023-05-10T11:54:05.100Z,19.86
2023-05-10T11:55:05.202Z,37.21
2023-05-10T11:56:06.404Z,46.27
2023-05-10T11:57:05.311Z,55.71
2023-05-10T11:58:05.398Z,66.53
2023-05-10T11:59:05.910Z,70.38
2023-05-10T12:00:05.588Z,68.75
2023-05-10T12:01:05.910Z,67.29
2023-05-10T12:02:05.724Z,70.61
2023-05-10T12:03:05.853Z,77.29
2023-05-10T12:04:06.209Z,83.68
2023-05-10T12:05:06.099Z,70.76
2023-05-10T12:06:06.048Z,69.38
2023-05-10T12:07:06.115Z,77.48
2023-05-10T12:08:06.205Z,75.41
2023-05-10T12:09:06.289Z,56.08
2023-05-10T12:10:06.408Z,57.04
2023-05-10T12:11:06.545Z,69.92
2023-05-10T12:12:06.575Z,83.26
2023-05-10T12:13:06.679Z,98.89
2023-05-10T12:14:06.770Z,102.96
2023-05-10T12:15:06.932Z,93.25
2023-05-10T12:16:07.465Z,92.03
2023-05-10T12:17:06.976Z,89.59
2023-05-10T12:18:07.077Z,95.45
2023-05-10T12:19:07.154Z,104.13
2023-05-10T12:20:07.234Z,107.19
2023-05-10T12:21:07.341Z,119.30
2023-05-10T12:22:07.916Z,113.45
2023-05-10T12:23:07.859Z,114.38
2023-05-10T12:24:07.589Z,107.63
2023-05-10T12:25:07.651Z,102.20
2023-05-10T12:26:07.949Z,106.23
2023-05-10T12:27:07.793Z,114.91
2023-05-10T12:28:07.831Z,112.99
2023-05-10T12:29:07.855Z,107.51
2023-05-10T12:30:07.884Z,107.88
2023-05-10T12:31:08.046Z,117.96
2023-05-10T12:32:08.201Z,125.83
2023-05-10T12:33:08.137Z,115.70
2023-05-10T12:34:08.138Z,116.49